Time;durP1;ratioP1;P1;durP2;ratioP2;P2;SDS_P1;SDS_P2;PMS_P1;PMS_P2;Temp;Humidity;BMP_temperature;BMP_pressure;BME280_temperature;BME280_humidity;BME280_pressure;Samples;Min_cycle;Max_cycle;Signal;HPM_P1;HPM_P2
2022/09/25 00:00:43;;;;;;;17.93;3.13;;;;;;;;;;6191074;23;20756;-89
2022/09/25 00:03:11;;;;;;;25.33;3.00;;;;;;;;;;6191576;23;20737;-89
2022/09/25 00:05:39;;;;;;;12.23;2.43;;;;;;;;;;6191638;23;20915;-89
2022/09/25 00:08:06;;;;;;;15.60;3.00;;;;;;;;;;6216343;23;20400;-89
2022/09/25 00:10:34;;;;;;;17.63;3.07;;;;;;;;;;6190708;23;20411;-89
2022/09/25 00:13:02;;;;;;;14.67;3.10;;;;;;;;;;6191259;23;20399;-89
2022/09/25 00:15:29;;;;;;;13.50;2.27;;;;;;;;;;6191014;23;20408;-89
2022/09/25 00:17:56;;;;;;;13.90;2.50;;;;;;;;;;6191021;23;20474;-89
2022/09/25 00:20:23;;;;;;;16.60;2.90;;;;;;;;;;6190232;23;20446;-88
2022/09/25 00:22:52;;;;;;;20.37;3.03;;;;;;;;;;6190508;23;20454;-90
2022/09/25 00:25:27;;;;;;;12.80;2.37;;;;;;;;;;6216945;23;20911;-89
2022/09/25 00:27:58;;;;;;;18.73;2.87;;;;;;;;;;6190815;23;20429;-89
2022/09/25 00:30:30;;;;;;;20.87;3.37;;;;;;;;;;6216134;23;20411;-94
2022/09/25 00:32:58;;;;;;;20.23;3.30;;;;;;;;;;6191243;23;20403;-93
2022/09/25 00:35:25;;;;;;;17.23;2.20;;;;;;;;;;6191686;23;20407;-94
2022/09/25 00:37:53;;;;;;;19.10;3.20;;;;;;;;;;6191165;23;20916;-94
2022/09/25 00:40:24;;;;;;;11.07;2.17;;;;;;;;;;6192063;23;20431;-94
2022/09/25 00:42:51;;;;;;;21.00;3.03;;;;;;;;;;6215784;23;20408;-94
2022/09/25 00:45:20;;;;;;;19.10;3.07;;;;;;;;;;6191514;23;20388;-93
2022/09/25 00:47:50;;;;;;;18.00;3.30;;;;;;;;;;6191630;23;20440;-94
2022/09/25 00:50:24;;;;;;;15.43;2.60;;;;;;;;;;6216279;23;20469;-94
2022/09/25 00:52:53;;;;;;;10.73;2.83;;;;;;;;;;6191448;23;20408;-93
2022/09/25 00:55:31;;;;;;;18.00;3.17;;;;;;;;;;6191284;23;20408;-93
2022/09/25 00:58:00;;;;;;;22.93;3.90;;;;;;;;;;6215459;23;20466;-93
2022/09/25 01:00:44;;;;;;;19.83;3.30;;;;;;;;;;6190855;23;20443;-93
2022/09/25 01:03:15;;;;;;;15.77;2.60;;;;;;;;;;6216204;23;20427;-93
2022/09/25 01:05:53;;;;;;;13.60;2.47;;;;;;;;;;6215808;23;20948;-93
2022/09/25 01:08:22;;;;;;;11.53;2.77;;;;;;;;;;6191229;23;20903;-93
2022/09/25 01:10:56;;;;;;;19.93;3.40;;;;;;;;;;6190874;23;20469;-94
2022/09/25 01:13:24;;;;;;;15.13;2.67;;;;;;;;;;6190579;23;20784;-93
2022/09/25 01:15:56;;;;;;;14.50;3.20;;;;;;;;;;6215781;23;20407;-94
2022/09/25 01:18:37;;;;;;;15.73;2.50;;;;;;;;;;6190926;23;20439;-93
2022/09/25 01:21:28;;;;;;;14.03;2.60;;;;;;;;;;6215766;23;20443;-94
2022/09/25 01:24:04;;;;;;;13.50;2.70;;;;;;;;;;6215778;23;20462;-94
2022/09/25 01:26:51;;;;;;;21.80;4.07;;;;;;;;;;6214998;23;20532;-94
2022/09/25 01:29:19;;;;;;;11.53;2.23;;;;;;;;;;6215726;23;20408;-94
2022/09/25 01:31:49;;;;;;;11.40;3.33;;;;;;;;;;6215849;23;20464;-93
2022/09/25 01:34:36;;;;;;;14.93;2.67;;;;;;;;;;6215723;23;20415;-94
2022/09/25 01:37:18;;;;;;;22.07;3.30;;;;;;;;;;6216763;23;20407;-93
2022/09/25 01:40:00;;;;;;;16.57;2.70;;;;;;;;;;6215625;23;20489;-94
2022/09/25 01:42:30;;;;;;;16.20;2.50;;;;;;;;;;6215088;23;20462;-94
2022/09/25 01:45:01;;;;;;;22.00;3.27;;;;;;;;;;6191419;23;20748;-94
2022/09/25 01:47:55;;;;;;;16.23;3.03;;;;;;;;;;6190132;23;20462;-93
2022/09/25 01:50:24;;;;;;;17.10;4.00;;;;;;;;;;6185327;23;20467;-93
2022/09/25 01:52:55;;;;;;;16.80;3.10;;;;;;;;;;6160813;23;20408;-94
2022/09/25 01:55:27;;;;;;;18.73;3.10;;;;;;;;;;6160486;23;20408;-94
2022/09/25 01:57:55;;;;;;;12.33;2.23;;;;;;;;;;6161089;23;20462;-93
2022/09/25 02:00:29;;;;;;;15.77;2.43;;;;;;;;;;6185467;23;20440;-93
2022/09/25 02:03:10;;;;;;;19.97;3.50;;;;;;;;;;6160807;23;20902;-94
2022/09/25 02:05:41;;;;;;;14.87;2.83;;;;;;;;;;6160806;23;20420;-94
2022/09/25 02:08:24;;;;;;;18.17;3.23;;;;;;;;;;6185032;23;20408;-94
2022/09/25 02:10:55;;;;;;;17.13;2.80;;;;;;;;;;6186332;23;20419;-93
2022/09/25 02:13:23;;;;;;;24.13;3.00;;;;;;;;;;6160956;23;20408;-93
2022/09/25 02:15:54;;;;;;;22.73;3.07;;;;;;;;;;6160596;23;20408;-93
2022/09/25 02:21:27;;;;;;;22.50;3.13;;;;;;;;;;6117059;23;20449;-93
2022/09/25 02:24:13;;;;;;;19.57;3.07;;;;;;;;;;6162414;23;20408;-93
2022/09/25 02:26:42;;;;;;;14.43;2.40;;;;;;;;;;6187388;23;20384;-93
2022/09/25 02:29:14;;;;;;;13.70;2.53;;;;;;;;;;6187644;23;20412;-93
2022/09/25 02:31:47;;;;;;;19.40;3.80;;;;;;;;;;6162633;23;20411;-93
2022/09/25 02:34:15;;;;;;;12.80;2.40;;;;;;;;;;6187370;23;20463;-93
2022/09/25 02:36:44;;;;;;;16.93;2.93;;;;;;;;;;6162640;23;20388;-94
2022/09/25 02:39:13;;;;;;;12.63;2.17;;;;;;;;;;6162871;23;20389;-93
2022/09/25 02:41:55;;;;;;;16.97;3.00;;;;;;;;;;6163000;23;20785;-93
2022/09/25 02:44:29;;;;;;;23.87;3.87;;;;;;;;;;6187216;23;20459;-93
2022/09/25 02:47:12;;;;;;;18.30;3.00;;;;;;;;;;6162812;23;20408;-92
2022/09/25 02:49:45;;;;;;;19.93;2.80;;;;;;;;;;6188257;23;20820;-93
2022/09/25 02:52:35;;;;;;;19.07;2.67;;;;;;;;;;6216973;23;20767;-93
2022/09/25 02:55:19;;;;;;;15.83;3.50;;;;;;;;;;6219366;23;20893;-92
2022/09/25 02:57:56;;;;;;;17.33;2.50;;;;;;;;;;6192202;23;20407;-93
2022/09/25 03:00:33;;;;;;;15.33;3.03;;;;;;;;;;6192153;23;20443;-94
2022/09/25 03:03:02;;;;;;;19.90;2.50;;;;;;;;;;6217053;23;20407;-93
2022/09/25 03:05:41;;;;;;;21.30;2.00;;;;;;;;;;6192553;23;20411;-95
2022/09/25 03:11:07;;;;;;;23.13;3.37;;;;;;;;;;6217253;23;20411;-93
2022/09/25 03:13:34;;;;;;;12.57;2.87;;;;;;;;;;6192139;23;20407;-94
2022/09/25 03:16:03;;;;;;;19.00;3.37;;;;;;;;;;6192070;23;20407;-93
2022/09/25 03:18:31;;;;;;;23.97;3.33;;;;;;;;;;6192051;23;20407;-93
2022/09/25 03:20:58;;;;;;;22.93;3.37;;;;;;;;;;6191778;23;20450;-93
2022/09/25 03:23:26;;;;;;;23.10;2.97;;;;;;;;;;6191843;23;20407;-93
2022/09/25 03:25:54;;;;;;;19.87;2.83;;;;;;;;;;6191993;23;20412;-93
2022/09/25 03:28:30;;;;;;;16.70;2.73;;;;;;;;;;6192383;23;20407;-94
2022/09/25 03:31:03;;;;;;;15.63;2.70;;;;;;;;;;6191956;23;20906;-93
2022/09/25 03:33:36;;;;;;;18.77;3.10;;;;;;;;;;6192094;23;20410;-94
2022/09/25 03:36:21;;;;;;;19.13;3.50;;;;;;;;;;6192432;23;20438;-94
2022/09/25 03:39:01;;;;;;;18.67;2.43;;;;;;;;;;6191961;23;20434;-93
2022/09/25 03:41:29;;;;;;;16.43;2.50;;;;;;;;;;6216216;23;20434;-93
2022/09/25 03:43:58;;;;;;;20.67;3.40;;;;;;;;;;6192265;23;20411;-93
2022/09/25 03:46:33;;;;;;;15.93;2.60;;;;;;;;;;6191404;23;20408;-93
2022/09/25 03:49:01;;;;;;;24.37;3.20;;;;;;;;;;6191102;23;20462;-93
2022/09/25 03:51:30;;;;;;;31.70;4.13;;;;;;;;;;6191771;23;20412;-93
2022/09/25 03:53:59;;;;;;;19.00;2.90;;;;;;;;;;6191985;23;20458;-94
2022/09/25 03:56:29;;;;;;;27.60;3.60;;;;;;;;;;6192236;23;20422;-93
2022/09/25 03:58:57;;;;;;;24.00;3.30;;;;;;;;;;6191543;23;20412;-94
2022/09/25 04:01:27;;;;;;;14.00;3.00;;;;;;;;;;6191586;23;20455;-94
2022/09/25 04:03:55;;;;;;;21.23;3.87;;;;;;;;;;6191647;23;20415;-93
2022/09/25 04:06:24;;;;;;;17.47;2.60;;;;;;;;;;6191516;23;20458;-93
2022/09/25 04:08:53;;;;;;;22.57;4.37;;;;;;;;;;6192091;23;20465;-94
2022/09/25 04:11:24;;;;;;;18.30;3.10;;;;;;;;;;6191636;23;20411;-94
2022/09/25 04:14:00;;;;;;;16.83;3.20;;;;;;;;;;6191129;23;20898;-93
2022/09/25 04:16:32;;;;;;;19.60;2.60;;;;;;;;;;6216262;23;20414;-94
2022/09/25 04:18:59;;;;;;;27.63;4.03;;;;;;;;;;6216110;23;20407;-93
2022/09/25 04:21:27;;;;;;;16.30;2.90;;;;;;;;;;6191548;23;20469;-94
2022/09/25 04:26:40;;;;;;;26.17;3.57;;;;;;;;;;6216593;23;20407;-93
2022/09/25 04:29:09;;;;;;;17.90;3.37;;;;;;;;;;6191468;23;20407;-93
2022/09/25 04:31:38;;;;;;;18.30;2.83;;;;;;;;;;6191460;23;20494;-93
2022/09/25 04:34:14;;;;;;;24.93;3.80;;;;;;;;;;6191878;23;20384;-93
2022/09/25 04:36:44;;;;;;;31.07;4.07;;;;;;;;;;6191665;23;20415;-93
2022/09/25 04:39:18;;;;;;;20.03;3.27;;;;;;;;;;6215845;23;20462;-93
2022/09/25 04:41:48;;;;;;;14.10;3.30;;;;;;;;;;6215559;23;20442;-93
2022/09/25 04:44:16;;;;;;;13.70;2.40;;;;;;;;;;6190994;23;20408;-93
2022/09/25 04:46:44;;;;;;;31.07;3.63;;;;;;;;;;6191320;23;20414;-93
2022/09/25 04:49:14;;;;;;;20.30;2.63;;;;;;;;;;6190997;23;20439;-93
2022/09/25 04:51:45;;;;;;;20.93;3.40;;;;;;;;;;6215815;23;20412;-93
2022/09/25 04:54:15;;;;;;;17.67;3.10;;;;;;;;;;6216214;23;20747;-93
2022/09/25 04:56:46;;;;;;;17.40;3.27;;;;;;;;;;6215385;23;20972;-92
2022/09/25 04:59:17;;;;;;;25.57;3.23;;;;;;;;;;6216438;23;20407;-93
2022/09/25 05:01:47;;;;;;;22.63;3.70;;;;;;;;;;6215489;23;20447;-93
2022/09/25 05:04:19;;;;;;;23.77;3.87;;;;;;;;;;6216170;23;20442;-93
2022/09/25 05:06:47;;;;;;;21.40;3.13;;;;;;;;;;6191235;23;20442;-92
2022/09/25 05:09:16;;;;;;;23.87;3.80;;;;;;;;;;6191081;23;20413;-93
2022/09/25 05:11:45;;;;;;;23.03;3.23;;;;;;;;;;6190988;23;20411;-93
2022/09/25 05:14:14;;;;;;;14.00;3.23;;;;;;;;;;6191217;23;20415;-93
2022/09/25 05:16:54;;;;;;;23.03;3.33;;;;;;;;;;6190817;23;20415;-93
2022/09/25 05:19:24;;;;;;;15.80;3.50;;;;;;;;;;6215709;23;20408;-95
2022/09/25 05:21:54;;;;;;;20.53;3.70;;;;;;;;;;6215133;23;20440;-92
2022/09/25 05:24:26;;;;;;;22.57;3.07;;;;;;;;;;6191588;23;20380;-92
2022/09/25 05:26:58;;;;;;;17.37;3.43;;;;;;;;;;6215857;23;20465;-92
2022/09/25 05:29:29;;;;;;;26.30;4.30;;;;;;;;;;6215690;23;20407;-91
2022/09/25 05:31:58;;;;;;;20.97;4.10;;;;;;;;;;6191185;23;20415;-92
2022/09/25 05:34:28;;;;;;;19.93;3.40;;;;;;;;;;6190868;23;20411;-93
2022/09/25 05:37:26;;;;;;;16.93;3.40;;;;;;;;;;6191041;23;20465;-92
2022/09/25 05:39:55;;;;;;;15.10;2.80;;;;;;;;;;6215969;23;20808;-92
2022/09/25 05:42:30;;;;;;;18.30;3.10;;;;;;;;;;6191579;23;20435;-92
2022/09/25 05:45:17;;;;;;;16.30;3.10;;;;;;;;;;6190613;23;20407;-92
2022/09/25 05:47:47;;;;;;;28.77;3.60;;;;;;;;;;6213180;23;20894;-92
2022/09/25 05:50:19;;;;;;;17.00;2.97;;;;;;;;;;6160921;23;20408;-93
2022/09/25 05:52:53;;;;;;;23.90;3.90;;;;;;;;;;6185173;23;20408;-92
2022/09/25 05:55:34;;;;;;;31.80;2.87;;;;;;;;;;6160912;23;20408;-92
2022/09/25 05:58:04;;;;;;;20.00;3.80;;;;;;;;;;6160834;23;20408;-92
2022/09/25 06:00:45;;;;;;;29.00;4.27;;;;;;;;;;6161482;23;20875;-92
2022/09/25 06:03:13;;;;;;;18.27;2.60;;;;;;;;;;6160614;23;20408;-92
2022/09/25 06:05:48;;;;;;;18.67;3.00;;;;;;;;;;6160918;23;20409;-92
2022/09/25 06:08:16;;;;;;;17.50;2.97;;;;;;;;;;6161003;23;20396;-92
2022/09/25 06:10:48;;;;;;;17.53;2.73;;;;;;;;;;6161060;23;20459;-92
2022/09/25 06:13:17;;;;;;;19.63;3.47;;;;;;;;;;6185960;23;20752;-92
2022/09/25 06:15:51;;;;;;;39.53;5.23;;;;;;;;;;6160609;23;20409;-92
2022/09/25 06:18:22;;;;;;;12.73;2.40;;;;;;;;;;6161090;23;20918;-94
2022/09/25 06:20:52;;;;;;;11.43;2.70;;;;;;;;;;6160868;23;20409;-92
2022/09/25 06:23:19;;;;;;;11.47;3.23;;;;;;;;;;6185093;23;20408;-92
2022/09/25 06:26:02;;;;;;;16.37;2.50;;;;;;;;;;6160974;23;20408;-92
2022/09/25 06:28:31;;;;;;;28.53;5.03;;;;;;;;;;6185478;23;20463;-94
2022/09/25 06:31:06;;;;;;;21.70;4.47;;;;;;;;;;6160428;23;20745;-92
2022/09/25 06:33:46;;;;;;;13.97;2.60;;;;;;;;;;6185966;23;20435;-93
2022/09/25 06:36:14;;;;;;;19.50;3.10;;;;;;;;;;6185321;23;20408;-93
2022/09/25 06:38:43;;;;;;;28.13;3.80;;;;;;;;;;6160732;23;20408;-92
2022/09/25 06:41:13;;;;;;;22.13;3.13;;;;;;;;;;6184932;23;20440;-92
2022/09/25 06:43:50;;;;;;;14.80;3.37;;;;;;;;;;6184993;23;20938;-92
2022/09/25 06:46:19;;;;;;;14.10;2.50;;;;;;;;;;6160591;23;20408;-92
2022/09/25 06:48:53;;;;;;;18.77;3.60;;;;;;;;;;6171707;23;20991;-92
2022/09/25 06:51:24;;;;;;;12.20;2.80;;;;;;;;;;6190216;23;20473;-93
2022/09/25 06:53:52;;;;;;;30.13;3.30;;;;;;;;;;6190349;23;20408;-92
2022/09/25 06:56:26;;;;;;;20.97;3.80;;;;;;;;;;6190921;23;20961;-92
2022/09/25 06:58:54;;;;;;;13.53;2.67;;;;;;;;;;6190568;23;20518;-92
2022/09/25 07:01:24;;;;;;;14.10;2.70;;;;;;;;;;6190087;23;20462;-92
2022/09/25 07:03:53;;;;;;;11.13;2.90;;;;;;;;;;6215432;23;20410;-92
2022/09/25 07:06:25;;;;;;;13.63;2.30;;;;;;;;;;6192821;23;20388;-93
2022/09/25 07:08:56;;;;;;;11.63;2.60;;;;;;;;;;6217320;23;20391;-92
2022/09/25 07:11:30;;;;;;;13.03;2.63;;;;;;;;;;6191314;23;20407;-93
2022/09/25 07:14:02;;;;;;;8.70;2.23;;;;;;;;;;6193252;23;20427;-91
2022/09/25 07:16:36;;;;;;;21.47;3.00;;;;;;;;;;6191759;23;20481;-93
2022/09/25 07:19:17;;;;;;;9.20;2.50;;;;;;;;;;6192458;23;20409;-93
2022/09/25 07:21:54;;;;;;;10.53;1.90;;;;;;;;;;6216675;23;20470;-94
2022/09/25 07:24:25;;;;;;;18.30;2.37;;;;;;;;;;6192339;23;20407;-91
2022/09/25 07:26:55;;;;;;;10.97;2.13;;;;;;;;;;6191995;23;20415;-92
2022/09/25 07:29:30;;;;;;;11.87;2.53;;;;;;;;;;6191872;23;20407;-91
2022/09/25 07:32:00;;;;;;;9.33;1.83;;;;;;;;;;6191973;23;20417;-92
2022/09/25 07:34:30;;;;;;;13.00;2.00;;;;;;;;;;6217072;23;20380;-93
2022/09/25 07:36:58;;;;;;;13.97;2.13;;;;;;;;;;6192742;23;20392;-92
2022/09/25 07:39:29;;;;;;;9.60;2.00;;;;;;;;;;6191722;23;20414;-92
2022/09/25 07:42:03;;;;;;;16.40;2.23;;;;;;;;;;6216282;23;20443;-92
2022/09/25 07:44:39;;;;;;;22.60;4.17;;;;;;;;;;6192013;23;20417;-92
2022/09/25 07:47:14;;;;;;;8.93;2.03;;;;;;;;;;6193506;23;20913;-92
2022/09/25 07:49:42;;;;;;;12.13;1.87;;;;;;;;;;6194469;23;20435;-92
2022/09/25 07:52:14;;;;;;;11.53;1.97;;;;;;;;;;6218199;23;20571;-90
2022/09/25 07:54:42;;;;;;;15.43;1.90;;;;;;;;;;6216274;23;20434;-92
2022/09/25 07:57:19;;;;;;;11.93;2.20;;;;;;;;;;6192773;23;20431;-92
2022/09/25 07:59:55;;;;;;;10.93;1.93;;;;;;;;;;6192295;23;20797;-92
2022/09/25 08:02:34;;;;;;;8.93;2.40;;;;;;;;;;6216466;23;20489;-91
2022/09/25 08:05:15;;;;;;;13.33;1.60;;;;;;;;;;6192079;23;20380;-94
2022/09/25 08:07:44;;;;;;;11.27;2.00;;;;;;;;;;6192377;23;20411;-92
2022/09/25 08:10:13;;;;;;;11.97;2.10;;;;;;;;;;6191485;23;20414;-93
2022/09/25 08:12:42;;;;;;;12.23;2.40;;;;;;;;;;6192473;23;20448;-93
2022/09/25 08:21:56;;;;;;;7.90;1.83;;;;;;;;;;6185995;23;20499;-95
2022/09/25 08:41:49;;;;;;;8.00;1.87;;;;;;;;;;6185684;23;20765;-95
2022/09/25 08:55:12;;;;;;;7.50;1.60;;;;;;;;;;6111952;23;20409;-94
2022/09/25 09:01:28;;;;;;;12.90;2.10;;;;;;;;;;6157908;23;20380;-95
2022/09/25 09:28:58;;;;;;;9.47;1.83;;;;;;;;;;6152956;23;20534;-95
2022/09/25 10:04:10;;;;;;;11.57;1.80;;;;;;;;;;6243778;23;20474;-93
2022/09/25 10:06:50;;;;;;;9.00;1.83;;;;;;;;;;6196176;23;20736;-92
2022/09/25 10:09:51;;;;;;;8.70;1.47;;;;;;;;;;6195874;23;20410;-94
2022/09/25 10:12:50;;;;;;;6.83;1.53;;;;;;;;;;6221571;23;20490;-91
2022/09/25 10:15:34;;;;;;;11.57;1.93;;;;;;;;;;6244336;23;20460;-90
2022/09/25 10:18:05;;;;;;;10.13;2.03;;;;;;;;;;6219889;23;20406;-89
2022/09/25 10:20:38;;;;;;;8.47;1.73;;;;;;;;;;6193797;23;20407;-90
2022/09/25 10:23:12;;;;;;;14.40;4.23;;;;;;;;;;6218355;23;20816;-89
2022/09/25 10:25:40;;;;;;;25.30;11.07;;;;;;;;;;6194194;23;20456;-89
2022/09/25 10:28:20;;;;;;;23.43;9.27;;;;;;;;;;6219354;23;20406;-89
2022/09/25 10:30:48;;;;;;;12.83;2.63;;;;;;;;;;6194712;23;20395;-89
2022/09/25 10:33:41;;;;;;;11.00;2.27;;;;;;;;;;6219778;23;20394;-89
2022/09/25 10:36:08;;;;;;;11.23;2.40;;;;;;;;;;6245621;23;20413;-89
2022/09/25 10:38:36;;;;;;;9.50;2.10;;;;;;;;;;6220501;23;20494;-89
2022/09/25 10:41:05;;;;;;;4.47;1.70;;;;;;;;;;6221983;23;20474;-88
2022/09/25 10:43:33;;;;;;;10.53;1.80;;;;;;;;;;6220931;23;20430;-89
2022/09/25 10:46:08;;;;;;;9.23;1.93;;;;;;;;;;6220429;23;20490;-89
2022/09/25 10:51:25;;;;;;;13.30;1.80;;;;;;;;;;6247649;23;21117;-89
2022/09/25 10:54:08;;;;;;;9.50;1.60;;;;;;;;;;6220510;23;20461;-90
2022/09/25 10:56:37;;;;;;;7.50;1.93;;;;;;;;;;6220901;23;20746;-90
2022/09/25 10:59:14;;;;;;;9.67;2.17;;;;;;;;;;6221223;23;20407;-89
2022/09/25 11:01:42;;;;;;;13.73;2.17;;;;;;;;;;6246418;23;20398;-90
2022/09/25 11:04:14;;;;;;;7.27;1.73;;;;;;;;;;6195446;23;20437;-89
2022/09/25 11:07:06;;;;;;;6.00;1.73;;;;;;;;;;6247759;23;20402;-90
2022/09/25 11:09:34;;;;;;;10.13;2.37;;;;;;;;;;6220896;23;20951;-90
2022/09/25 11:12:06;;;;;;;13.40;1.97;;;;;;;;;;6196158;23;20438;-90
2022/09/25 11:14:35;;;;;;;13.37;3.00;;;;;;;;;;6221670;23;20477;-90
2022/09/25 11:17:08;;;;;;;12.80;1.90;;;;;;;;;;6220214;23;20406;-90
2022/09/25 11:19:36;;;;;;;11.37;2.07;;;;;;;;;;6221138;23;20474;-89
2022/09/25 11:22:24;;;;;;;11.43;3.27;;;;;;;;;;6196622;23;20434;-89
2022/09/25 11:25:28;;;;;;;11.83;2.50;;;;;;;;;;6223456;23;20406;-90
2022/09/25 11:28:03;;;;;;;10.93;2.20;;;;;;;;;;6216956;23;20407;-89
2022/09/25 11:30:39;;;;;;;7.40;1.70;;;;;;;;;;6196316;23;20878;-89
2022/09/25 11:33:10;;;;;;;9.73;1.67;;;;;;;;;;6220735;23;20410;-89
2022/09/25 11:35:56;;;;;;;20.57;8.63;;;;;;;;;;6220654;23;20414;-90
2022/09/25 11:41:21;;;;;;;15.90;2.03;;;;;;;;;;6247002;23;20894;-89
2022/09/25 11:44:09;;;;;;;18.23;5.20;;;;;;;;;;6196415;23;20462;-90
2022/09/25 11:46:55;;;;;;;16.40;2.20;;;;;;;;;;6220651;23;20410;-89
2022/09/25 11:49:23;;;;;;;14.80;2.13;;;;;;;;;;6220159;23;20409;-90
2022/09/25 11:52:01;;;;;;;8.40;1.63;;;;;;;;;;6195999;23;20407;-90
2022/09/25 11:54:39;;;;;;;12.90;1.70;;;;;;;;;;6246182;23;20430;-90
2022/09/25 11:57:42;;;;;;;8.37;2.10;;;;;;;;;;6203090;23;20415;-90
2022/09/25 12:00:45;;;;;;;6.17;1.63;;;;;;;;;;6222544;23;20403;-89
2022/09/25 12:07:14;;;;;;;6.10;1.83;;;;;;;;;;6098128;23;20447;-89
2022/09/25 12:09:44;;;;;;;8.80;1.50;;;;;;;;;;6183154;23;20504;-89
2022/09/25 12:12:35;;;;;;;12.73;1.97;;;;;;;;;;6137748;23;20396;-90
2022/09/25 12:15:33;;;;;;;7.97;2.37;;;;;;;;;;6164363;23;20411;-90
2022/09/25 12:18:51;;;;;;;9.77;1.87;;;;;;;;;;6159736;23;20397;-90
2022/09/25 12:21:42;;;;;;;8.50;2.63;;;;;;;;;;6162047;23;20486;-91
2022/09/25 12:24:28;;;;;;;12.43;2.30;;;;;;;;;;6158711;23;20491;-89
2022/09/25 12:30:25;;;;;;;10.50;1.83;;;;;;;;;;6184425;23;20736;-89
2022/09/25 12:33:15;;;;;;;12.90;2.37;;;;;;;;;;6134377;23;20468;-88
2022/09/25 12:35:48;;;;;;;10.87;1.73;;;;;;;;;;6159101;23;20405;-90
2022/09/25 12:38:31;;;;;;;11.83;1.80;;;;;;;;;;6155547;23;20929;-89
2022/09/25 12:41:02;;;;;;;9.07;1.87;;;;;;;;;;6165326;23;20408;-90
2022/09/25 12:43:32;;;;;;;11.33;1.80;;;;;;;;;;6165571;23;20451;-90
2022/09/25 12:46:23;;;;;;;14.50;2.50;;;;;;;;;;6216323;23;20407;-89
2022/09/25 12:52:41;;;;;;;5.33;1.60;;;;;;;;;;6075090;23;20898;-90
2022/09/25 12:55:41;;;;;;;11.50;1.90;;;;;;;;;;6099488;23;20407;-90
2022/09/25 12:58:53;;;;;;;10.73;2.27;;;;;;;;;;6002396;23;20418;-91
2022/09/25 13:01:35;;;;;;;15.93;2.20;;;;;;;;;;6042830;23;20767;-90
2022/09/25 13:36:58;;;;;;;11.30;1.80;;;;;;;;;;6037713;23;20392;-90
2022/09/25 13:43:27;;;;;;;114.50;8.47;;;;;;;;;;5952855;24;20442;-90
2022/09/25 13:46:09;;;;;;;16.80;1.43;;;;;;;;;;5871044;24;20437;-90
2022/09/25 14:03:06;;;;;;;16.10;2.80;;;;;;;;;;5791018;24;20518;-87
2022/09/25 14:09:52;;;;;;;11.67;2.43;;;;;;;;;;5766075;24;20473;-87
2022/09/25 14:20:11;;;;;;;6.40;1.70;;;;;;;;;;5843866;24;20441;-87
2022/09/25 14:27:28;;;;;;;6.80;2.00;;;;;;;;;;5778307;24;20408;-87
2022/09/25 14:37:02;;;;;;;18.93;1.97;;;;;;;;;;5843337;24;20426;-87
2022/09/25 14:47:12;;;;;;;3.47;1.13;;;;;;;;;;5923738;24;20395;-87
2022/09/25 14:50:27;;;;;;;;;;;;;;;;;;;;;
2022/09/25 14:53:10;;;;;;;11.13;1.77;;;;;;;;;;5944652;24;20415;-87
2022/09/25 14:56:54;;;;;;;13.23;1.97;;;;;;;;;;5912056;24;20495;-87
2022/09/25 15:00:16;;;;;;;6.23;1.17;;;;;;;;;;6052986;23;20774;-87
2022/09/25 15:14:14;;;;;;;6.20;1.50;;;;;;;;;;6008534;23;20554;-88
2022/09/25 17:29:20;;;;;;;15.67;3.03;;;;;;;;;;6216221;23;20380;-87
2022/09/25 17:32:01;;;;;;;20.90;3.07;;;;;;;;;;6190541;23;20422;-87
2022/09/25 17:35:21;;;;;;;20.50;2.97;;;;;;;;;;6167028;23;20504;-87
2022/09/25 17:37:51;;;;;;;16.13;2.97;;;;;;;;;;6189110;23;20400;-87
2022/09/25 17:40:33;;;;;;;12.87;2.60;;;;;;;;;;6167493;23;20442;-87
2022/09/25 17:43:14;;;;;;;19.53;3.23;;;;;;;;;;6186279;23;20490;-87
2022/09/25 17:45:48;;;;;;;20.07;3.40;;;;;;;;;;6164655;23;20887;-88
2022/09/25 17:48:23;;;;;;;14.57;3.10;;;;;;;;;;6164708;23;20886;-87
2022/09/25 17:50:51;;;;;;;16.90;2.83;;;;;;;;;;6166222;23;20391;-88
2022/09/25 17:53:21;;;;;;;19.50;2.83;;;;;;;;;;6166319;23;20391;-87
2022/09/25 17:55:49;;;;;;;22.13;3.53;;;;;;;;;;6165042;23;20834;-87
2022/09/25 17:58:20;;;;;;;14.67;3.10;;;;;;;;;;6165892;23;20982;-87
2022/09/25 18:00:48;;;;;;;17.80;2.70;;;;;;;;;;6165382;23;20396;-87
2022/09/25 18:03:16;;;;;;;18.23;3.10;;;;;;;;;;6164002;23;20439;-88
2022/09/25 18:05:44;;;;;;;20.50;3.50;;;;;;;;;;6165014;23;20462;-87
2022/09/25 18:08:12;;;;;;;17.57;3.03;;;;;;;;;;6165007;23;20430;-87
2022/09/25 18:10:40;;;;;;;17.53;3.33;;;;;;;;;;6164863;23;20778;-88
2022/09/25 18:13:10;;;;;;;19.20;2.97;;;;;;;;;;6164591;23;20396;-87
2022/09/25 18:15:40;;;;;;;20.03;3.37;;;;;;;;;;6164319;23;20408;-87
2022/09/25 18:18:08;;;;;;;29.93;4.00;;;;;;;;;;6164155;23;20403;-87
2022/09/25 18:23:22;;;;;;;22.47;3.53;;;;;;;;;;6215157;23;20440;-87
2022/09/25 18:26:03;;;;;;;13.07;3.10;;;;;;;;;;6188201;23;20396;-87
2022/09/25 18:28:30;;;;;;;15.83;2.33;;;;;;;;;;6236894;23;20439;-87
2022/09/25 18:30:58;;;;;;;14.10;2.77;;;;;;;;;;6219054;23;20410;-87
2022/09/25 18:33:25;;;;;;;22.63;3.27;;;;;;;;;;6245813;23;20406;-87
2022/09/25 18:35:53;;;;;;;24.63;4.23;;;;;;;;;;6195030;23;20412;-87
2022/09/25 18:38:21;;;;;;;16.63;2.77;;;;;;;;;;6220066;23;20463;-87
2022/09/25 18:40:48;;;;;;;19.63;3.57;;;;;;;;;;6194238;23;20398;-87
2022/09/25 18:43:16;;;;;;;19.53;3.67;;;;;;;;;;6194487;23;20464;-87
2022/09/25 18:45:49;;;;;;;16.53;2.50;;;;;;;;;;6245629;23;21181;-87
2022/09/25 18:48:17;;;;;;;20.97;3.50;;;;;;;;;;6219336;23;20473;-86
2022/09/25 18:50:46;;;;;;;18.03;2.97;;;;;;;;;;6194440;23;20881;-87
2022/09/25 18:53:14;;;;;;;23.10;3.80;;;;;;;;;;6219452;23;20403;-87
2022/09/25 18:55:42;;;;;;;25.73;4.10;;;;;;;;;;6220296;23;20410;-87
2022/09/25 18:58:10;;;;;;;19.10;3.07;;;;;;;;;;6194713;23;20456;-87
2022/09/25 19:00:41;;;;;;;18.27;3.10;;;;;;;;;;6221120;23;20402;-86
2022/09/25 19:03:09;;;;;;;17.60;3.07;;;;;;;;;;6196412;23;20442;-87
2022/09/25 19:05:38;;;;;;;16.97;3.20;;;;;;;;;;6221816;23;20441;-87
2022/09/25 19:08:05;;;;;;;22.33;3.30;;;;;;;;;;6247045;23;20458;-87
2022/09/25 19:10:35;;;;;;;17.27;3.43;;;;;;;;;;6221179;23;20821;-87
2022/09/25 19:13:03;;;;;;;24.37;3.50;;;;;;;;;;6220668;23;20480;-87
2022/09/25 19:15:30;;;;;;;23.43;3.73;;;;;;;;;;6247188;23;20775;-88
2022/09/25 19:17:58;;;;;;;23.23;3.57;;;;;;;;;;6220435;23;20403;-87
2022/09/25 19:20:25;;;;;;;24.43;4.00;;;;;;;;;;6195986;23;20406;-87
2022/09/25 19:22:52;;;;;;;26.43;3.40;;;;;;;;;;6196453;23;20394;-87
2022/09/25 19:25:20;;;;;;;22.80;3.40;;;;;;;;;;6196621;23;20406;-86
2022/09/25 19:27:48;;;;;;;25.27;3.43;;;;;;;;;;6221065;23;20745;-87
2022/09/25 19:30:37;;;;;;;20.37;3.83;;;;;;;;;;6196676;23;20687;-87
2022/09/25 19:33:08;;;;;;;25.13;4.30;;;;;;;;;;6221967;23;20407;-87
2022/09/25 19:35:36;;;;;;;25.40;2.87;;;;;;;;;;6247266;23;20893;-87
2022/09/25 19:38:03;;;;;;;16.23;3.50;;;;;;;;;;6247177;23;20996;-87
2022/09/25 19:40:38;;;;;;;21.57;4.33;;;;;;;;;;6198667;23;20394;-87
2022/09/25 19:43:06;;;;;;;31.53;4.40;;;;;;;;;;6221279;23;20441;-87
2022/09/25 19:48:58;;;;;;;23.30;3.50;;;;;;;;;;6247439;23;20498;-87
2022/09/25 19:54:51;;;;;;;31.17;5.27;;;;;;;;;;6247177;23;20362;-87
2022/09/25 19:57:20;;;;;;;24.07;4.43;;;;;;;;;;6195944;23;20403;-87
2022/09/25 19:59:55;;;;;;;25.13;3.87;;;;;;;;;;6197099;23;20411;-87
2022/09/25 20:02:29;;;;;;;20.20;3.43;;;;;;;;;;6198749;23;20399;-87
2022/09/25 20:04:57;;;;;;;29.03;4.13;;;;;;;;;;6195546;23;20438;-87
2022/09/25 20:07:24;;;;;;;21.77;3.60;;;;;;;;;;6219705;23;20405;-87
2022/09/25 20:09:51;;;;;;;26.33;4.33;;;;;;;;;;6220717;23;20390;-87
2022/09/25 20:12:19;;;;;;;23.00;3.90;;;;;;;;;;6196496;23;20394;-87
2022/09/25 20:14:46;;;;;;;21.50;4.00;;;;;;;;;;6195229;23;20399;-87
2022/09/25 20:17:14;;;;;;;25.00;3.53;;;;;;;;;;6220377;23;20406;-87
2022/09/25 20:19:42;;;;;;;22.50;3.90;;;;;;;;;;6195965;23;20406;-87
2022/09/25 20:22:09;;;;;;;24.63;4.17;;;;;;;;;;6220283;23;20395;-87
2022/09/25 20:24:36;;;;;;;26.33;4.63;;;;;;;;;;6219874;23;20434;-90
2022/09/25 20:27:04;;;;;;;24.80;4.17;;;;;;;;;;6220338;23;20908;-87
2022/09/25 20:29:31;;;;;;;26.70;4.73;;;;;;;;;;6220459;23;20477;-87
2022/09/25 20:31:58;;;;;;;23.87;4.07;;;;;;;;;;6220502;23;20394;-87
2022/09/25 20:34:26;;;;;;;28.50;4.43;;;;;;;;;;6194896;23;20395;-87
2022/09/25 20:36:54;;;;;;;24.90;4.10;;;;;;;;;;6196171;23;20414;-87
2022/09/25 20:39:22;;;;;;;26.93;4.90;;;;;;;;;;6194991;23;20802;-86
2022/09/25 20:41:49;;;;;;;27.63;4.60;;;;;;;;;;6195787;23;20407;-87
2022/09/25 20:44:19;;;;;;;32.23;4.47;;;;;;;;;;6196779;23;20442;-89
2022/09/25 20:46:47;;;;;;;24.37;4.13;;;;;;;;;;6220592;23;20375;-87
2022/09/25 20:49:19;;;;;;;27.87;4.80;;;;;;;;;;6195662;23;20414;-88
2022/09/25 20:51:46;;;;;;;33.80;3.70;;;;;;;;;;6220865;23;20395;-89
2022/09/25 20:54:14;;;;;;;22.10;4.23;;;;;;;;;;6195502;23;20938;-88
2022/09/25 20:56:43;;;;;;;27.33;4.80;;;;;;;;;;6220290;23;20452;-89
2022/09/25 20:59:16;;;;;;;23.67;4.23;;;;;;;;;;6222248;23;20427;-89
2022/09/25 21:01:45;;;;;;;28.30;4.20;;;;;;;;;;6196293;23;21094;-89
2022/09/25 21:04:15;;;;;;;25.33;3.60;;;;;;;;;;6219944;23;20439;-88
2022/09/25 21:07:02;;;;;;;26.87;4.03;;;;;;;;;;6196823;23;20774;-90
2022/09/25 21:09:41;;;;;;;23.87;3.60;;;;;;;;;;6221710;23;20398;-91